Погода Ламбинона 2 недели

Республика Карелия, Россия

24 июля-06 августа
  • 24июля
    Сегодня
    +10°
    +27°
    Практически безоблачно
    ВремяПогодаТемператураВлажностьДавлениеВетер, м/сВероятность осадков
    00:00Ясно и безоблачно+14°C76 %761 мм1.7 м/с2 %
    03:00Ясно и безоблачно+11°C87 %761 мм1.8 м/с2 %
    06:00Ясно и безоблачно+16°C85 %761 мм0.9 м/с2 %
    09:00Ясно и безоблачно+24°C64 %761 мм0.6 м/с2 %
    12:00Практически безоблачно+26°C54 %760 мм2.3 м/с2 %
    15:00Практически безоблачно+26°C48 %760 мм2.9 м/с2 %
    18:00Ясно и безоблачно+24°C52 %760 мм2.5 м/с2 %
    21:00Ясно и безоблачно+18°C67 %760 мм2.1 м/с2 %
  • 25июля
    Четверг
    +10°
    +22°
    Ясно и безоблачно
    ВремяПогодаТемператураВлажностьДавлениеВетер, м/сВероятность осадков
    00:00Ясно и безоблачно+13°C75 %760 мм1.4 м/с2 %
    03:00Ясно и безоблачно+11°C89 %760 мм1.6 м/с2 %
    06:00Ясно и безоблачно+14°C90 %760 мм1.4 м/с2 %
    09:00Практически безоблачно+19°C73 %760 мм2.0 м/с2 %
    12:00Практически безоблачно+22°C64 %759 мм2.5 м/с2 %
    15:00Ясно и безоблачно+22°C61 %759 мм2.6 м/с2 %
    18:00Ясно и безоблачно+20°C64 %759 мм2.2 м/с2 %
    21:00Ясно и безоблачно+16°C69 %759 мм2.3 м/с2 %
  • 26июля
    Пятница
    +9°
    +24°
    Ясно и безоблачно
    ВремяПогодаТемператураВлажностьДавлениеВетер, м/сВероятность осадков
    00:00Ясно и безоблачно+12°C77 %759 мм2.0 м/с2 %
    03:00Ясно и безоблачно+11°C87 %759 мм1.2 м/с2 %
    06:00Ясно и безоблачно+14°C86 %759 мм1.9 м/с2 %
    09:00Ясно и безоблачно+19°C66 %758 мм1.5 м/с2 %
    12:00Ясно и безоблачно+23°C53 %758 мм2.1 м/с2 %
    15:00Ясно и безоблачно+23°C54 %758 мм2.4 м/с2 %
    18:00Ясно и безоблачно+20°C61 %758 мм2.5 м/с2 %
    21:00Ясно и безоблачно+16°C78 %758 мм1.6 м/с2 %
  • 27июля
    Суббота
    +8°
    +20°
    Ясно и безоблачно
    ВремяПогодаТемператураВлажностьДавлениеВетер, м/сВероятность осадков
    00:00Ясно и безоблачно+11°C85 %758 мм2.5 м/с2 %
    03:00Ясно и безоблачно+10°C87 %758 мм2.2 м/с2 %
    06:00Ясно и безоблачно+13°C88 %759 мм1.7 м/с2 %
    09:00Ясно и безоблачно+18°C68 %759 мм2.2 м/с2 %
    12:00Ясно и безоблачно+20°C55 %759 мм2.7 м/с2 %
    15:00Ясно и безоблачно+19°C53 %759 мм2.9 м/с2 %
    18:00Ясно и безоблачно+17°C61 %759 мм2.5 м/с5 %
    21:00Ясно и безоблачно+14°C76 %759 мм2.6 м/с2 %
  • 28июля
    Воскресенье
    +13°
    +21°
    Облачно с прояснениями
    ВремяПогодаТемператураВлажностьДавлениеВетер, м/сВероятность осадков
    00:00Ясно и безоблачно+10°C81 %759 мм2.6 м/с4 %
    03:00Ясно и безоблачно+9°C89 %759 мм1.8 м/с5 %
    06:00Ясно и безоблачно+12°C91 %759 мм1.7 м/с3 %
    09:00Практически безоблачно+18°C65 %758 мм1.8 м/с9 %
    12:00Ясно и безоблачно+20°C53 %758 мм3.0 м/с8 %
    15:00Облачно с прояснениями+21°C46 %757 мм3.8 м/с12 %
    18:00Облачно с прояснениями+19°C58 %756 мм3.0 м/с16 %
    21:00Облачно с прояснениями+15°C69 %755 мм3.4 м/с19 %
Мы используем cookies
Соглашаюсь